Time;durP1;ratioP1;P1;durP2;ratioP2;P2;SDS_P1;SDS_P2;PMS_P1;PMS_P2;Temp;Humidity;BMP_temperature;BMP_pressure;BME280_temperature;BME280_humidity;BME280_pressure;Samples;Min_cycle;Max_cycle;Signal;HPM_P1;HPM_P2
2023/06/27 00:00:05;;;;;;;4.50;1.80;;;;;;;-144.47;64.23;52653.50;4993281;28;20030;-62
2023/06/27 00:02:31;;;;;;;4.35;1.67;;;;;;;-144.47;64.17;52625.72;5017380;28;20107;-63
2023/06/27 00:05:00;;;;;;;8.30;2.50;;;;;;;-144.47;64.22;52631.66;5017073;28;20030;-62
2023/06/27 00:07:28;;;;;;;6.72;2.30;;;;;;;-144.47;64.12;52633.66;5010954;28;20391;-63
2023/06/27 00:09:57;;;;;;;6.03;2.00;;;;;;;-144.47;64.15;52633.66;5010891;28;20029;-64
2023/06/27 00:12:22;;;;;;;;;;;;;;;-144.47;64.19;52613.78;5028245;22;20091;-70
2023/06/27 00:14:49;;;;;;;5.00;1.92;;;;;;;-144.47;65.00;52647.56;5010343;28;20101;-70
2023/06/27 00:17:16;;;;;;;21.52;2.40;;;;;;;-144.47;65.19;52619.75;5029197;28;20033;-69
2023/06/27 00:19:44;;;;;;;9.23;2.70;;;;;;;-144.47;65.69;52595.91;5029727;28;20025;-70
2023/06/27 00:22:10;;;;;;;3.83;1.75;;;;;;;-144.47;65.96;52607.84;5036765;28;20406;-69
2023/06/27 00:24:37;;;;;;;6.55;2.88;;;;;;;-144.47;66.39;52637.63;5049991;28;20051;-70
2023/06/27 00:27:03;;;;;;;5.90;2.15;;;;;;;-144.47;66.90;52625.72;5049989;28;20170;-70
2023/06/27 00:29:28;;;;;;;7.35;2.05;;;;;;;-144.47;67.19;52629.69;5030329;28;20381;-71
2023/06/27 00:31:55;;;;;;;8.10;1.98;;;;;;;-144.47;67.65;52611.81;5046709;28;20551;-67
2023/06/27 00:34:20;;;;;;;12.57;2.53;;;;;;;-144.47;68.08;52633.66;5048740;28;20397;-70
2023/06/27 00:36:46;;;;;;;4.20;1.75;;;;;;;-144.47;67.76;52621.72;5047481;28;20461;-71
2023/06/27 00:39:11;;;;;;;4.47;1.80;;;;;;;-144.47;68.18;52611.81;5049125;28;20450;-71
2023/06/27 00:41:36;;;;;;;7.72;2.20;;;;;;;-144.47;68.24;52635.63;5047411;28;20431;-69
2023/06/27 00:44:07;;;;;;;3.83;1.88;;;;;;;-144.47;67.74;52649.53;5049276;28;20021;-70
2023/06/27 00:46:42;;;;;;;6.78;1.90;;;;;;;-144.47;67.77;52611.81;5049643;28;20025;-71
2023/06/27 00:49:10;;;;;;;4.13;1.67;;;;;;;-144.47;67.13;52631.66;5031106;28;20487;-66
2023/06/27 00:51:38;;;;;;;6.00;1.77;;;;;;;-144.47;67.23;52649.53;5017847;28;20386;-67
2023/06/27 00:54:03;;;;;;;7.33;1.60;;;;;;;-144.47;67.44;52641.59;5049734;28;20067;-70
2023/06/27 00:56:29;;;;;;;3.88;1.45;;;;;;;-144.47;67.98;52633.66;5051618;28;20033;-71
2023/06/27 00:58:57;;;;;;;6.28;1.75;;;;;;;-144.47;68.11;52627.69;5054254;28;20029;-69
2023/06/27 01:01:23;;;;;;;8.90;2.08;;;;;;;-144.47;68.08;52637.63;5052925;28;20025;-70
2023/06/27 01:03:48;;;;;;;5.72;2.10;;;;;;;-144.47;67.66;52627.69;5047875;28;20398;-66
2023/06/27 01:06:30;;;;;;;7.28;1.70;;;;;;;-144.47;67.88;52649.53;5017554;28;20187;-68
2023/06/27 01:09:31;;;;;;;7.45;2.88;;;;;;;-144.47;67.88;52629.69;5029412;28;20052;-70
2023/06/27 01:12:05;;;;;;;3.53;1.58;;;;;;;-144.47;68.25;52607.84;5047073;28;20025;-69
2023/06/27 01:14:33;;;;;;;7.10;2.00;;;;;;;-144.47;68.50;52631.66;5047428;28;20037;-70
2023/06/27 01:16:59;;;;;;;8.00;1.77;;;;;;;-144.47;68.20;52621.72;5048259;28;20029;-69
2023/06/27 01:19:29;;;;;;;9.05;2.10;;;;;;;-144.47;68.36;52641.59;5046465;28;20374;-70
2023/06/27 01:22:01;;;;;;;7.28;1.50;;;;;;;-144.47;68.13;52619.75;5047412;28;20032;-71
2023/06/27 01:24:26;;;;;;;9.50;1.65;;;;;;;-144.47;68.55;52595.91;5046859;28;20075;-69
2023/06/27 01:26:52;;;;;;;3.05;1.30;;;;;;;-144.47;68.62;52627.69;5048229;28;20533;-69
2023/06/27 01:29:17;;;;;;;7.25;1.50;;;;;;;-144.47;69.56;52643.56;5047802;28;20021;-69
2023/06/27 01:31:59;;;;;;;8.10;1.60;;;;;;;-144.47;69.79;52637.63;5047999;28;20191;-69
2023/06/27 01:34:32;;;;;;;6.88;1.52;;;;;;;-144.47;70.21;52619.75;5046982;28;20478;-70
2023/06/27 01:37:19;;;;;;;7.63;1.92;;;;;;;-144.47;70.58;52629.69;5047202;28;20124;-65
2023/06/27 01:39:48;;;;;;;8.75;1.70;;;;;;;-144.47;70.76;52625.72;5047841;28;20033;-68
2023/06/27 01:42:18;;;;;;;11.10;1.55;;;;;;;-144.47;71.02;52633.66;5047856;28;20090;-66
2023/06/27 01:44:46;;;;;;;7.72;1.63;;;;;;;-144.47;71.46;52649.53;5044750;28;20042;-69
2023/06/27 01:47:13;;;;;;;4.22;1.60;;;;;;;-144.47;71.71;52649.53;5048078;28;20384;-67
2023/06/27 01:49:38;;;;;;;7.07;1.70;;;;;;;-144.47;71.95;52633.66;5047130;28;20056;-70
2023/06/27 01:52:05;;;;;;;5.50;1.83;;;;;;;-144.47;71.72;52641.59;5047908;28;20048;-69
2023/06/27 01:54:30;;;;;;;7.13;1.40;;;;;;;-144.47;72.05;52635.63;5046736;28;20025;-69
2023/06/27 01:56:56;;;;;;;12.52;1.70;;;;;;;-144.47;72.53;52639.59;5041566;28;20028;-69
2023/06/27 01:59:21;;;;;;;5.43;1.60;;;;;;;-144.47;72.87;52637.63;5041919;28;20390;-66
2023/06/27 02:01:46;;;;;;;5.63;1.70;;;;;;;-144.47;73.01;52623.72;5047553;28;20399;-70
2023/06/27 02:04:12;;;;;;;7.78;2.03;;;;;;;-144.47;72.95;52649.53;5046240;28;20051;-68
2023/06/27 02:06:37;;;;;;;6.63;2.05;;;;;;;-144.47;73.02;52643.56;5037825;28;20092;-70
2023/06/27 02:09:04;;;;;;;3.92;1.25;;;;;;;-144.47;73.54;52655.50;5047633;28;20113;-69
2023/06/27 02:11:29;;;;;;;4.40;1.85;;;;;;;-144.47;73.72;52631.66;5048770;28;20587;-69
2023/06/27 02:13:54;;;;;;;4.60;1.40;;;;;;;-144.47;73.99;52619.75;5038534;28;20045;-72
2023/06/27 02:16:20;;;;;;;6.88;1.77;;;;;;;-144.47;74.48;52633.66;5047525;28;20086;-69
2023/06/27 02:18:45;;;;;;;10.00;1.77;;;;;;;-144.47;74.60;52619.75;5029849;28;20099;-71
2023/06/27 02:21:11;;;;;;;5.93;2.00;;;;;;;-144.47;74.80;52645.56;5047938;28;20143;-69
2023/06/27 02:23:36;;;;;;;6.70;1.60;;;;;;;-144.47;75.24;52643.56;5047298;28;20104;-71
2023/06/27 02:26:03;;;;;;;4.80;1.60;;;;;;;-144.47;75.74;52623.72;5041669;28;20475;-69
2023/06/27 02:28:29;;;;;;;10.40;2.15;;;;;;;-144.47;76.04;52653.50;5028843;28;20482;-70
2023/06/27 02:30:54;;;;;;;4.03;1.42;;;;;;;-144.47;76.13;52633.66;5047101;28;20080;-68
2023/06/27 02:33:20;;;;;;;4.88;1.88;;;;;;;-144.47;76.79;52645.56;5050108;28;20362;-68
2023/06/27 02:35:45;;;;;;;6.30;1.50;;;;;;;-144.47;75.98;52657.47;5050551;28;20037;-70
2023/06/27 02:38:11;;;;;;;3.28;1.40;;;;;;;-144.47;76.41;52605.84;5051114;28;20028;-67
2023/06/27 02:40:36;;;;;;;9.32;1.65;;;;;;;-144.47;76.23;52643.56;5051903;28;20021;-69
2023/06/27 02:43:02;;;;;;;10.48;1.80;;;;;;;-144.47;76.03;52657.47;5051285;28;20029;-70
2023/06/27 02:45:27;;;;;;;7.25;2.00;;;;;;;-144.47;75.90;52653.50;5050689;28;20101;-70
2023/06/27 02:47:52;;;;;;;8.80;1.70;;;;;;;-144.47;75.90;52649.53;5050997;28;20025;-68
2023/06/27 02:50:18;;;;;;;7.85;2.05;;;;;;;-144.47;75.89;52645.56;5033085;28;20021;-70
2023/06/27 02:52:43;;;;;;;4.10;1.40;;;;;;;-144.47;75.53;52645.56;5051412;28;20087;-69
2023/06/27 02:55:08;;;;;;;4.55;1.60;;;;;;;-144.47;75.85;52615.78;5042891;28;20199;-71
2023/06/27 02:57:34;;;;;;;6.60;1.60;;;;;;;-144.47;74.56;52649.53;5032747;28;20056;-70
2023/06/27 02:59:59;;;;;;;7.88;1.70;;;;;;;-144.47;74.16;52661.44;5050938;28;20037;-67
2023/06/27 03:02:24;;;;;;;9.98;2.03;;;;;;;-144.47;73.64;52651.53;5050907;28;20267;-70
2023/06/27 03:04:50;;;;;;;7.30;1.60;;;;;;;-144.47;73.87;52639.59;5045860;28;20516;-67
2023/06/27 03:07:15;;;;;;;7.68;1.70;;;;;;;-144.47;74.35;52645.56;5046237;28;20021;-71
2023/06/27 03:09:41;;;;;;;8.98;1.80;;;;;;;-144.47;74.67;52635.63;5050939;28;20116;-71
2023/06/27 03:12:07;;;;;;;5.43;1.63;;;;;;;-144.47;74.55;52629.69;5050859;28;20052;-69
2023/06/27 03:14:33;;;;;;;4.70;1.48;;;;;;;-144.47;74.90;52639.59;5047669;28;20025;-70
2023/06/27 03:16:58;;;;;;;4.93;1.52;;;;;;;-144.47;74.67;52663.44;5045475;28;20047;-68
2023/06/27 03:19:23;;;;;;;7.95;1.73;;;;;;;-144.47;74.57;52635.63;5042619;28;20104;-70
2023/06/27 03:21:49;;;;;;;7.05;1.80;;;;;;;-144.47;74.59;52627.69;5045705;28;20101;-68
2023/06/27 03:24:14;;;;;;;5.28;1.77;;;;;;;-144.47;74.22;52641.59;5050126;28;20021;-70
2023/06/27 03:26:39;;;;;;;6.25;2.05;;;;;;;-144.47;73.83;52603.84;5050668;28;20017;-68
2023/06/27 03:29:05;;;;;;;5.55;1.27;;;;;;;-144.47;73.18;52629.69;5050374;28;20458;-70
2023/06/27 03:31:30;;;;;;;6.50;1.50;;;;;;;-144.47;71.98;52661.44;5049934;28;20455;-69
2023/06/27 03:33:57;;;;;;;10.38;2.10;;;;;;;-144.47;71.55;52645.56;5049684;28;20489;-69
2023/06/27 03:36:24;;;;;;;6.15;1.60;;;;;;;-144.47;71.29;52645.56;5044015;28;20529;-69
2023/06/27 03:38:50;;;;;;;8.38;1.60;;;;;;;-144.47;71.46;52675.34;5050730;28;20131;-67
2023/06/27 03:41:16;;;;;;;9.00;1.80;;;;;;;-144.47;70.77;52657.47;5050286;28;20021;-70
2023/06/27 03:43:42;;;;;;;6.22;1.55;;;;;;;-144.47;70.37;52651.53;5049611;28;20033;-69
2023/06/27 03:46:09;;;;;;;4.03;1.45;;;;;;;-144.47;70.22;52633.66;5050023;28;20025;-71
2023/06/27 03:48:35;;;;;;;10.80;1.63;;;;;;;-144.47;69.82;52659.47;5025389;28;20541;-70
2023/06/27 03:51:00;;;;;;;10.70;1.70;;;;;;;-144.47;70.37;52615.78;5031692;28;20104;-70
2023/06/27 03:53:26;;;;;;;6.22;1.60;;;;;;;-144.47;69.94;52643.56;5037310;28;20115;-70
2023/06/27 03:55:51;;;;;;;4.60;1.60;;;;;;;-144.47;70.40;52635.63;5041002;28;20032;-68
2023/06/27 03:58:17;;;;;;;13.18;2.05;;;;;;;-144.47;70.76;52635.63;5043615;28;20109;-70
2023/06/27 04:00:42;;;;;;;7.00;2.30;;;;;;;-144.47;70.99;52647.56;5043288;28;20057;-70
2023/06/27 04:03:08;;;;;;;7.82;2.50;;;;;;;-144.47;71.21;52643.56;5048514;28;20024;-69
2023/06/27 04:05:33;;;;;;;5.95;1.55;;;;;;;-144.47;72.11;52635.63;5043894;28;20029;-72
2023/06/27 04:07:59;;;;;;;6.40;2.00;;;;;;;-144.47;72.30;52621.72;5038401;28;20049;-70
2023/06/27 04:10:24;;;;;;;11.48;2.13;;;;;;;-144.47;72.73;52651.53;5051192;28;20029;-70
2023/06/27 04:12:50;;;;;;;5.13;1.58;;;;;;;-144.47;73.01;52643.56;5048668;28;20036;-68
2023/06/27 04:15:15;;;;;;;7.32;1.70;;;;;;;-144.47;72.90;52631.66;5046603;28;20029;-68
2023/06/27 04:17:40;;;;;;;5.57;1.67;;;;;;;-144.47;72.97;52653.50;5036074;28;20033;-70
2023/06/27 04:20:07;;;;;;;4.07;1.45;;;;;;;-144.47;72.83;52653.50;5049761;28;20439;-71
2023/06/27 04:22:32;;;;;;;10.43;1.65;;;;;;;-144.47;72.54;52629.69;5025968;28;20030;-68
2023/06/27 04:24:57;;;;;;;11.13;1.60;;;;;;;-144.47;71.83;52621.72;5048941;28;20277;-66
2023/06/27 04:27:23;;;;;;;4.30;1.70;;;;;;;-144.47;72.21;52629.69;5050488;28;20114;-71
2023/06/27 04:29:48;;;;;;;9.68;1.73;;;;;;;-144.47;72.56;52645.56;5049256;28;20037;-69
2023/06/27 04:32:14;;;;;;;10.20;1.98;;;;;;;-144.47;73.14;52641.59;5048450;28;20354;-70
2023/06/27 04:34:39;;;;;;;6.80;1.98;;;;;;;-144.47;73.40;52637.63;5042216;28;20056;-68
2023/06/27 04:37:05;;;;;;;9.25;1.83;;;;;;;-144.47;73.25;52649.53;5025231;28;20047;-71
2023/06/27 04:39:31;;;;;;;9.57;1.88;;;;;;;-144.47;72.88;52651.53;5038130;28;20048;-70
2023/06/27 04:41:58;;;;;;;9.48;1.80;;;;;;;-144.47;72.60;52651.53;5047412;28;20029;-69
2023/06/27 04:44:24;;;;;;;6.10;2.17;;;;;;;-144.47;73.41;52643.56;5034846;28;20048;-71
2023/06/27 04:46:50;;;;;;;5.97;1.75;;;;;;;-144.47;72.90;52635.63;5048751;28;20471;-70
2023/06/27 04:49:15;;;;;;;7.13;1.80;;;;;;;-144.47;72.42;52657.47;5045657;28;20028;-70
2023/06/27 04:51:41;;;;;;;6.32;1.48;;;;;;;-144.47;72.28;52639.59;5030113;28;20025;-70
2023/06/27 04:54:06;;;;;;;9.95;1.60;;;;;;;-144.47;71.74;52657.47;5042029;28;20052;-67
2023/06/27 04:56:33;;;;;;;10.05;2.17;;;;;;;-144.47;72.11;52651.53;5043718;28;20029;-70
2023/06/27 04:58:59;;;;;;;12.50;2.20;;;;;;;-144.47;71.80;52635.63;5040944;28;20410;-69
2023/06/27 05:01:24;;;;;;;8.93;1.45;;;;;;;-144.47;71.54;52621.72;5038192;28;20037;-72
2023/06/27 05:03:49;;;;;;;5.88;1.63;;;;;;;-144.47;71.23;52645.56;5052771;28;20032;-68
2023/06/27 05:06:15;;;;;;;14.93;3.10;;;;;;;-144.47;71.23;52623.72;5053182;28;20398;-69
2023/06/27 05:08:40;;;;;;;11.73;2.08;;;;;;;-144.47;69.17;52613.78;5057460;28;20020;-71
2023/06/27 05:11:06;;;;;;;10.68;1.73;;;;;;;-144.47;68.36;52627.69;5060491;28;20045;-66
2023/06/27 05:13:31;;;;;;;11.10;2.10;;;;;;;-144.47;69.42;52609.81;5039333;28;20073;-69
2023/06/27 05:15:57;;;;;;;8.90;1.83;;;;;;;-144.47;69.43;52649.53;5052065;28;20037;-68
2023/06/27 05:18:23;;;;;;;11.32;2.03;;;;;;;-144.47;69.04;52617.75;5048450;28;20301;-69
2023/06/27 05:20:49;;;;;;;10.35;1.60;;;;;;;-144.47;68.80;52647.56;5045219;28;20029;-68
2023/06/27 05:23:14;;;;;;;9.63;2.00;;;;;;;-144.47;68.49;52617.75;5033848;28;20037;-67
2023/06/27 05:25:39;;;;;;;11.68;2.22;;;;;;;-144.47;68.34;52621.72;5045175;28;20559;-67
2023/06/27 05:28:05;;;;;;;8.60;1.70;;;;;;;-144.47;67.96;52613.78;5045073;28;20040;-67
2023/06/27 05:30:31;;;;;;;7.18;1.63;;;;;;;-144.47;67.93;52647.56;5047603;28;20025;-68
2023/06/27 05:32:57;;;;;;;11.55;2.20;;;;;;;-144.47;66.72;52645.56;5036270;28;20106;-69
2023/06/27 05:35:23;;;;;;;15.13;2.20;;;;;;;-144.47;66.71;52607.84;5046977;28;20374;-68
2023/06/27 05:37:49;;;;;;;4.45;1.23;;;;;;;-144.47;66.41;52647.56;5038723;28;20112;-70
2023/06/27 05:40:14;;;;;;;5.75;1.40;;;;;;;-144.47;66.41;52619.75;5047260;28;20435;-65
2023/06/27 05:42:40;;;;;;;14.23;2.40;;;;;;;-144.47;66.28;52641.59;5048046;28;20029;-70
2023/06/27 05:45:06;;;;;;;11.35;1.80;;;;;;;-144.47;66.58;52645.56;5047898;28;20056;-67
2023/06/27 05:47:32;;;;;;;7.00;1.70;;;;;;;-144.47;66.46;52645.56;5047987;28;20029;-68
2023/06/27 05:49:57;;;;;;;10.10;1.75;;;;;;;-144.47;65.64;52645.56;5047391;28;20103;-66
2023/06/27 05:52:23;;;;;;;7.88;1.38;;;;;;;-144.47;66.30;52637.63;5047611;28;20037;-69
2023/06/27 05:54:50;;;;;;;9.57;1.55;;;;;;;-144.47;66.97;52621.72;5044753;28;20029;-69
2023/06/27 05:57:15;;;;;;;9.07;1.48;;;;;;;-144.47;64.67;52641.59;5037585;28;20124;-65
2023/06/27 05:59:40;;;;;;;10.35;1.80;;;;;;;-144.47;64.50;52619.75;5046967;28;20091;-69
2023/06/27 06:02:06;;;;;;;7.65;2.45;;;;;;;-144.47;65.23;52649.53;5029241;28;20048;-68
2023/06/27 06:04:31;;;;;;;10.23;1.88;;;;;;;-144.47;65.56;52629.69;5046801;28;20478;-68
2023/06/27 06:06:58;;;;;;;9.43;1.50;;;;;;;-144.47;65.24;52637.63;5047648;28;20032;-65
2023/06/27 06:09:24;;;;;;;14.73;1.95;;;;;;;-144.47;65.43;52645.56;5030153;28;20021;-65
2023/06/27 06:11:50;;;;;;;6.43;1.38;;;;;;;-144.47;65.85;52629.69;5057311;23;20032;-71
2023/06/27 06:14:15;;;;;;;13.35;1.85;;;;;;;-144.47;64.77;52617.75;5048324;28;20094;-72
2023/06/27 06:16:41;;;;;;;10.57;1.52;;;;;;;-144.47;64.98;52659.47;5049192;28;20025;-72
2023/06/27 06:19:07;;;;;;;12.93;1.85;;;;;;;-144.47;64.50;52619.75;5048903;28;20025;-72
2023/06/27 06:21:33;;;;;;;8.77;1.83;;;;;;;-144.47;62.57;52635.63;5048865;28;20116;-72
2023/06/27 06:23:58;;;;;;;10.43;1.63;;;;;;;-144.47;61.28;52619.75;5049087;28;20111;-72
2023/06/27 06:26:24;;;;;;;6.53;1.50;;;;;;;-144.47;60.99;52653.50;5040485;28;20021;-71
2023/06/27 06:28:49;;;;;;;10.77;1.92;;;;;;;-144.47;59.68;52649.53;5048213;28;20036;-71
2023/06/27 06:31:16;;;;;;;6.10;1.40;;;;;;;-144.47;59.44;52619.75;5041085;28;20048;-73
2023/06/27 06:33:44;;;;;;;11.18;1.50;;;;;;;-144.47;58.53;52645.56;5047775;28;20029;-71
2023/06/27 06:36:10;;;;;;;10.80;1.90;;;;;;;-144.47;57.81;52655.50;5026855;28;20398;-72
2023/06/27 06:38:35;;;;;;;6.00;1.30;;;;;;;-144.47;57.82;52643.56;5049558;28;20057;-72
2023/06/27 06:41:01;;;;;;;10.98;1.70;;;;;;;-144.47;55.67;52585.97;5049166;28;20031;-72
2023/06/27 06:43:27;;;;;;;8.20;1.40;;;;;;;-144.47;56.52;52641.59;5049329;28;20067;-71
2023/06/27 06:45:53;;;;;;;5.85;1.30;;;;;;;-144.47;55.83;52621.72;5049558;28;20048;-72
2023/06/27 06:48:21;;;;;;;4.88;1.00;;;;;;;-144.47;55.00;52637.63;5049401;28;20032;-73
2023/06/27 06:50:49;;;;;;;;;;;;;;;-144.47;55.12;52631.66;5049846;28;20090;-72
2023/06/27 06:53:14;;;;;;;6.28;1.10;;;;;;;-144.47;53.99;52631.66;5048985;28;20457;-68
2023/06/27 06:55:40;;;;;;;8.77;1.95;;;;;;;-144.47;52.73;52639.59;5029049;28;20121;-71
2023/06/27 06:58:05;;;;;;;6.55;1.20;;;;;;;-144.47;53.22;52657.47;5048524;28;20379;-71
2023/06/27 07:00:30;;;;;;;7.15;1.38;;;;;;;-144.47;52.94;52631.66;5049171;28;20086;-71
2023/06/27 07:02:57;;;;;;;5.53;1.10;;;;;;;-144.47;52.00;52639.59;5048193;28;20068;-72
2023/06/27 07:05:23;;;;;;;5.75;1.00;;;;;;;-144.47;50.92;52625.72;5048204;28;20415;-72
2023/06/27 07:07:48;;;;;;;7.13;1.17;;;;;;;-144.47;51.34;52621.72;5031145;28;20024;-69
2023/06/27 07:10:13;;;;;;;3.42;1.17;;;;;;;-144.47;51.40;52613.78;5048733;28;20040;-71
2023/06/27 07:12:40;;;;;;;4.43;1.17;;;;;;;-144.47;51.14;52601.88;5048531;28;20024;-72
2023/06/27 07:15:06;;;;;;;4.47;1.20;;;;;;;-144.47;50.10;52643.56;5048314;28;20025;-72
2023/06/27 07:17:32;;;;;;;6.07;1.40;;;;;;;-144.47;49.90;52607.84;5048831;28;20156;-71
2023/06/27 07:19:59;;;;;;;4.72;1.30;;;;;;;-144.47;50.38;52629.69;5051999;28;20104;-72
2023/06/27 07:22:24;;;;;;;3.15;1.00;;;;;;;-144.47;50.47;52615.78;5052615;28;20025;-70
2023/06/27 07:24:50;;;;;;;7.95;1.20;;;;;;;-144.47;50.29;52607.84;5052107;28;20062;-71
2023/06/27 07:27:15;;;;;;;5.70;1.27;;;;;;;-144.47;50.12;52621.72;5050977;28;20035;-71
2023/06/27 07:29:41;;;;;;;3.08;1.15;;;;;;;-144.47;50.29;52603.84;5051287;28;20482;-71
2023/06/27 07:32:07;;;;;;;5.72;1.30;;;;;;;-144.47;49.85;52625.72;5051916;28;20049;-71
2023/06/27 07:34:33;;;;;;;8.27;1.35;;;;;;;-144.47;49.77;52645.56;5052936;28;20029;-72
2023/06/27 07:36:59;;;;;;;14.35;2.42;;;;;;;-144.47;49.89;52641.59;5052279;28;20495;-73
2023/06/27 07:39:24;;;;;;;8.07;1.33;;;;;;;-144.47;49.21;52627.69;5051957;28;20031;-71
2023/06/27 07:41:50;;;;;;;6.15;1.08;;;;;;;-144.47;48.81;52597.91;5052646;28;20035;-74
2023/06/27 07:44:15;;;;;;;2.97;0.98;;;;;;;-144.47;48.76;52625.72;5052288;28;20062;-72
2023/06/27 07:46:40;;;;;;;3.63;1.20;;;;;;;-144.47;48.91;52647.56;5052285;28;20535;-72
2023/06/27 07:49:07;;;;;;;4.03;1.20;;;;;;;-144.47;49.48;52627.69;5052294;28;20020;-74
2023/06/27 07:51:32;;;;;;;8.82;1.35;;;;;;;-144.47;49.55;52605.84;5051674;28;20028;-71
2023/06/27 07:54:00;;;;;;;4.85;1.17;;;;;;;-144.47;49.71;52629.69;5051336;28;20082;-73
2023/06/27 07:56:25;;;;;;;4.15;0.80;;;;;;;-144.47;49.33;52617.75;5045978;28;20067;-71
2023/06/27 07:58:51;;;;;;;2.63;1.08;;;;;;;-144.47;48.44;52637.63;5042539;28;20387;-72
2023/06/27 08:01:16;;;;;;;7.13;1.42;;;;;;;-144.47;47.32;52617.75;5051453;28;20493;-73
2023/06/27 08:03:42;;;;;;;3.13;1.00;;;;;;;-144.47;47.51;52597.91;5051174;28;20024;-72
2023/06/27 08:06:07;;;;;;;13.30;1.33;;;;;;;-144.47;47.39;52631.66;5051489;28;20024;-71
2023/06/27 08:08:33;;;;;;;5.57;1.40;;;;;;;-144.47;46.70;52633.66;5051682;28;20466;-71
2023/06/27 08:10:58;;;;;;;6.32;1.50;;;;;;;-144.47;47.31;52617.75;5051874;28;20025;-71
2023/06/27 08:13:24;;;;;;;5.05;1.73;;;;;;;-144.47;47.10;52607.84;5055257;28;20108;-73
2023/06/27 08:15:50;;;;;;;4.03;1.20;;;;;;;-144.47;47.31;52631.66;5051168;28;20103;-70
2023/06/27 08:18:15;;;;;;;3.38;1.10;;;;;;;-144.47;46.44;52627.69;5051668;28;20100;-71
2023/06/27 08:20:41;;;;;;;5.57;1.20;;;;;;;-144.47;45.58;52609.81;5051873;28;20513;-71
2023/06/27 08:23:07;;;;;;;5.50;1.33;;;;;;;-144.47;45.08;52619.75;5051202;28;20037;-71
2023/06/27 08:25:32;;;;;;;6.50;1.40;;;;;;;-144.47;45.34;52599.88;5051269;28;20032;-68
2023/06/27 08:27:58;;;;;;;2.75;0.90;;;;;;;-144.47;46.09;52607.84;5046315;28;20025;-75
2023/06/27 08:30:23;;;;;;;4.05;1.23;;;;;;;-144.47;46.03;52647.56;5049994;28;20116;-71
2023/06/27 08:32:49;;;;;;;10.20;1.08;;;;;;;-144.47;44.83;52641.59;5051092;28;20099;-72
2023/06/27 08:35:14;;;;;;;8.93;1.15;;;;;;;-144.47;45.14;52627.69;5050753;28;20025;-71
2023/06/27 08:37:40;;;;;;;3.47;1.00;;;;;;;-144.47;45.25;52629.69;5050476;28;20029;-73
2023/06/27 08:40:05;;;;;;;3.67;1.10;;;;;;;-144.47;45.39;52621.72;5050639;28;20033;-71
2023/06/27 08:42:32;;;;;;;7.00;1.45;;;;;;;-144.47;45.35;52629.69;5032888;28;20020;-72
2023/06/27 08:45:01;;;;;;;5.80;1.20;;;;;;;-144.47;43.77;52599.88;5050600;28;20372;-72
2023/06/27 08:47:29;;;;;;;7.00;1.20;;;;;;;-144.47;43.66;52637.63;5050878;28;20049;-71
2023/06/27 08:50:05;;;;;;;5.25;0.90;;;;;;;-144.47;42.90;52637.63;5050360;28;20025;-72
2023/06/27 08:52:41;;;;;;;4.38;1.10;;;;;;;-144.47;43.09;52619.75;5050584;28;20166;-73
2023/06/27 08:55:10;;;;;;;4.38;1.23;;;;;;;-144.47;43.44;52629.69;5047378;28;20539;-72
2023/06/27 08:57:37;;;;;;;4.75;1.10;;;;;;;-144.47;43.64;52615.78;5048581;28;20047;-69
2023/06/27 09:00:13;;;;;;;4.65;1.10;;;;;;;-144.47;43.12;52621.72;5047673;28;20024;-70
2023/06/27 09:02:40;;;;;;;3.45;1.10;;;;;;;-144.47;43.32;52609.81;5046267;28;20087;-70
2023/06/27 09:05:07;;;;;;;3.42;1.27;;;;;;;-144.47;44.29;52633.66;5047709;28;20033;-71
2023/06/27 09:07:33;;;;;;;6.32;1.15;;;;;;;-144.47;44.94;52635.63;5050050;28;20595;-70
2023/06/27 09:09:59;;;;;;;2.88;1.10;;;;;;;-144.47;45.48;52625.72;5049808;28;20537;-70
2023/06/27 09:12:27;;;;;;;13.73;2.20;;;;;;;-144.47;46.25;52637.63;5050149;28;20112;-70
2023/06/27 09:14:53;;;;;;;4.57;1.10;;;;;;;-144.47;46.87;52637.63;5047391;28;21536;-71
2023/06/27 09:17:19;;;;;;;7.25;1.65;;;;;;;-144.47;47.49;52615.78;5048055;28;20105;-67
2023/06/27 09:19:44;;;;;;;5.05;1.10;;;;;;;-144.47;47.34;52615.78;5049368;28;20239;-70
2023/06/27 09:22:10;;;;;;;6.10;1.27;;;;;;;-144.47;48.03;52657.47;5049588;28;20139;-70
2023/06/27 09:24:40;;;;;;;3.50;1.10;;;;;;;-144.47;47.67;52603.84;5047948;28;20025;-70
2023/06/27 09:27:07;;;;;;;6.30;1.33;;;;;;;-144.47;47.74;52643.56;5049279;28;20021;-69
2023/06/27 09:29:33;;;;;;;6.53;1.20;;;;;;;-144.47;47.02;52647.56;5028875;28;20379;-70
2023/06/27 09:32:08;;;;;;;6.55;1.17;;;;;;;-144.47;46.65;52613.78;5049404;28;20024;-68
2023/06/27 09:34:37;;;;;;;4.70;1.10;;;;;;;-144.47;45.86;52625.72;5047895;28;20394;-70
2023/06/27 09:37:03;;;;;;;4.25;1.23;;;;;;;-144.47;45.35;52655.50;5039382;28;20025;-69
2023/06/27 09:39:28;;;;;;;7.63;1.40;;;;;;;-144.47;44.73;52643.56;5049731;28;20025;-70
2023/06/27 09:41:54;;;;;;;6.35;0.98;;;;;;;-144.47;44.45;52617.75;5048708;28;20037;-72
2023/06/27 09:44:27;;;;;;;2.13;0.95;;;;;;;-144.47;44.16;52619.75;5046401;28;20558;-67
2023/06/27 09:46:53;;;;;;;5.32;1.40;;;;;;;-144.47;42.64;52647.56;5039127;28;20023;-67
2023/06/27 09:49:21;;;;;;;5.55;1.30;;;;;;;-144.47;43.13;52633.66;5029684;28;20109;-71
2023/06/27 09:51:49;;;;;;;3.85;1.30;;;;;;;-144.47;43.86;52645.56;5054664;28;20052;-70
2023/06/27 09:54:21;;;;;;;3.20;1.05;;;;;;;-144.47;43.81;52617.75;5048388;28;20176;-72
2023/06/27 09:56:51;;;;;;;6.25;1.25;;;;;;;-144.47;43.79;52627.69;5048800;28;20128;-68
2023/06/27 09:59:21;;;;;;;3.38;0.98;;;;;;;-144.47;43.69;52637.63;5039174;28;20048;-70
2023/06/27 10:01:47;;;;;;;9.30;1.15;;;;;;;-144.47;43.69;52629.69;5037092;28;20384;-70
2023/06/27 10:04:13;;;;;;;6.10;1.08;;;;;;;-144.47;43.24;52613.78;5047959;28;20181;-67
2023/06/27 10:06:39;;;;;;;6.47;2.28;;;;;;;-144.47;44.17;52667.41;5030443;28;20048;-70
2023/06/27 10:09:04;;;;;;;5.28;1.33;;;;;;;-144.47;45.23;52643.56;5047475;28;20024;-69
2023/06/27 10:11:30;;;;;;;4.18;0.98;;;;;;;-144.47;47.62;52631.66;5048030;28;20104;-70
2023/06/27 10:13:56;;;;;;;3.50;1.05;;;;;;;-144.47;47.25;52613.78;5048052;28;20171;-69
2023/06/27 10:16:21;;;;;;;6.47;1.20;;;;;;;-144.47;47.05;52625.72;5048166;28;20082;-70
2023/06/27 10:18:47;;;;;;;1.77;0.80;;;;;;;-144.47;44.63;52578.03;5047539;28;20029;-70
2023/06/27 10:21:14;;;;;;;1.80;0.73;;;;;;;-144.47;43.24;52637.63;5049137;28;20029;-73
2023/06/27 10:23:42;;;;;;;3.22;0.88;;;;;;;-144.47;44.01;52645.56;5048167;28;20493;-71
2023/06/27 10:26:10;;;;;;;6.70;1.05;;;;;;;-144.47;43.53;52629.69;5048686;28;20032;-71
2023/06/27 10:28:36;;;;;;;8.27;1.05;;;;;;;-144.47;44.51;52629.69;5044970;28;20398;-69
2023/06/27 10:31:04;;;;;;;5.43;1.10;;;;;;;-144.47;43.94;52621.72;5040561;28;20028;-70
2023/06/27 10:33:31;;;;;;;2.80;1.00;;;;;;;-144.47;42.89;52651.53;5042982;28;20025;-71
2023/06/27 10:36:09;;;;;;;2.90;1.00;;;;;;;-144.47;42.87;52647.56;5045429;28;20033;-69
2023/06/27 10:38:36;;;;;;;7.70;1.40;;;;;;;-144.47;42.74;52631.66;5050157;28;20025;-66
2023/06/27 10:41:06;;;;;;;2.58;0.98;;;;;;;-144.47;43.93;52641.59;5048495;28;20021;-71
2023/06/27 10:43:46;;;;;;;3.28;1.45;;;;;;;-144.47;44.11;52641.59;5043479;28;20083;-69
2023/06/27 10:46:22;;;;;;;3.22;1.27;;;;;;;-144.47;44.31;52645.56;5043325;28;20132;-71
2023/06/27 10:48:55;;;;;;;4.95;0.85;;;;;;;-144.47;41.71;52617.75;5048473;28;20024;-71
2023/06/27 10:51:22;;;;;;;7.95;1.38;;;;;;;-144.47;41.38;52619.75;5031032;28;20040;-70
2023/06/27 10:54:12;;;;;;;5.47;1.20;;;;;;;-144.47;41.31;52619.75;5046060;28;20037;-69
2023/06/27 10:56:40;;;;;;;5.68;1.33;;;;;;;-144.47;40.96;52645.56;5032507;28;20053;-69
2023/06/27 10:59:10;;;;;;;5.45;1.25;;;;;;;-144.47;41.15;52625.72;5052004;28;20037;-69
2023/06/27 11:01:40;;;;;;;6.28;1.50;;;;;;;-144.47;41.74;52611.81;5051591;28;20405;-69
2023/06/27 11:04:25;;;;;;;2.88;1.10;;;;;;;-144.47;42.31;52641.59;5052264;28;20371;-68
2023/06/27 11:06:57;;;;;;;5.65;1.20;;;;;;;-144.47;41.73;52641.59;5052059;28;20021;-67
2023/06/27 11:09:23;;;;;;;2.35;0.98;;;;;;;-144.47;41.28;52619.75;5052485;28;20083;-69
2023/06/27 11:12:06;;;;;;;2.30;0.90;;;;;;;-144.47;41.61;52639.59;5051982;28;20391;-69
2023/06/27 11:14:34;;;;;;;5.18;1.20;;;;;;;-144.47;41.48;52613.78;5051889;28;20025;-69